Time;durP1;ratioP1;P1;durP2;ratioP2;P2;SDS_P1;SDS_P2;PMS_P1;PMS_P2;Temp;Humidity;BMP_temperature;BMP_pressure;BME280_temperature;BME280_humidity;BME280_pressure;Samples;Min_cycle;Max_cycle;Signal;HPM_P1;HPM_P2
2021/04/26 00:00:30;;;;;;;5.20;2.17;;;6.00;63.40;;;;;;5056331;28;20029;-64
2021/04/26 00:02:57;;;;;;;4.60;2.30;;;6.00;63.80;;;;;;5051678;28;20029;-62
2021/04/26 00:05:24;;;;;;;3.03;1.92;;;5.90;63.90;;;;;;5052547;28;20031;-61
2021/04/26 00:07:49;;;;;;;8.77;2.50;;;5.90;63.90;;;;;;5069713;28;20470;-62
2021/04/26 00:10:16;;;;;;;8.68;2.10;;;5.80;64.60;;;;;;5071279;28;20081;-61
2021/04/26 00:12:42;;;;;;;3.30;1.55;;;5.80;64.50;;;;;;5064687;28;20025;-61
2021/04/26 00:15:22;;;;;;;4.05;1.80;;;5.80;64.10;;;;;;5051639;28;20036;-63
2021/04/26 00:17:48;;;;;;;3.83;1.73;;;5.80;64.70;;;;;;5067141;28;20504;-60
2021/04/26 00:20:20;;;;;;;4.43;1.80;;;5.80;63.90;;;;;;5052399;28;20086;-62
2021/04/26 00:22:46;;;;;;;4.63;1.88;;;5.80;63.60;;;;;;5052466;28;20124;-60
2021/04/26 00:25:13;;;;;;;5.82;2.33;;;5.90;63.60;;;;;;5059738;28;20047;-62
2021/04/26 00:27:39;;;;;;;6.90;2.30;;;5.90;63.30;;;;;;5071574;28;20496;-62
2021/04/26 00:30:08;;;;;;;3.47;1.98;;;5.90;63.60;;;;;;5063073;28;20033;-58
2021/04/26 00:32:33;;;;;;;3.58;1.80;;;6.00;63.50;;;;;;5069212;28;20098;-58
2021/04/26 00:34:59;;;;;;;6.90;2.00;;;6.00;63.50;;;;;;5069922;28;20484;-61
2021/04/26 00:37:24;;;;;;;4.82;1.90;;;6.10;63.50;;;;;;5063402;28;20060;-63
2021/04/26 00:39:50;;;;;;;5.35;2.45;;;6.10;63.60;;;;;;5051820;28;20044;-63
2021/04/26 00:42:16;;;;;;;4.93;2.35;;;6.10;64.00;;;;;;5064546;28;20029;-58
2021/04/26 00:44:41;;;;;;;7.97;2.72;;;6.20;63.80;;;;;;5054680;28;20025;-55
2021/04/26 00:47:08;;;;;;;9.18;3.05;;;6.30;63.60;;;;;;5055585;28;20064;-58
2021/04/26 00:49:34;;;;;;;5.30;3.30;;;6.40;63.50;;;;;;5056597;28;20070;-60
2021/04/26 00:52:00;;;;;;;5.30;2.35;;;6.40;63.40;;;;;;5070086;28;20044;-63
2021/04/26 00:54:25;;;;;;;6.68;2.80;;;6.30;63.30;;;;;;5059461;28;20017;-60
2021/04/26 00:56:51;;;;;;;9.13;3.28;;;6.30;64.20;;;;;;5055019;28;20035;-61
2021/04/26 00:59:18;;;;;;;8.70;3.47;;;6.30;64.30;;;;;;5050934;28;20056;-60
2021/04/26 01:01:43;;;;;;;10.75;3.08;;;6.30;64.00;;;;;;5056121;28;20111;-58
2021/04/26 01:04:09;;;;;;;5.72;2.67;;;6.30;64.10;;;;;;5070511;28;20534;-60
2021/04/26 01:06:35;;;;;;;9.02;3.13;;;6.30;64.20;;;;;;5051056;28;20040;-61
2021/04/26 01:09:01;;;;;;;6.15;2.88;;;6.30;64.50;;;;;;5063986;28;20072;-59
2021/04/26 01:11:40;;;;;;;7.55;2.60;;;6.30;64.60;;;;;;5070588;28;20028;-62
2021/04/26 01:14:51;;;;;;;5.43;3.17;;;6.30;64.70;;;;;;5064492;28;20021;-62
2021/04/26 01:17:26;;;;;;;10.45;3.30;;;6.30;64.70;;;;;;5049592;28;20037;-60
2021/04/26 01:20:09;;;;;;;9.27;2.92;;;6.20;64.90;;;;;;5052771;28;20466;-65
2021/04/26 01:22:54;;;;;;;9.38;3.30;;;6.20;65.30;;;;;;5069206;28;20035;-58
2021/04/26 01:25:22;;;;;;;6.60;3.53;;;6.10;65.70;;;;;;5060538;28;20029;-61
2021/04/26 01:28:12;;;;;;;6.38;3.30;;;6.20;65.70;;;;;;5050510;28;20055;-59
2021/04/26 01:30:58;;;;;;;9.02;3.60;;;6.20;65.50;;;;;;5051195;28;20031;-62
2021/04/26 01:33:28;;;;;;;10.32;3.55;;;6.10;66.00;;;;;;5065129;28;20036;-60
2021/04/26 01:35:59;;;;;;;4.65;3.25;;;6.10;66.60;;;;;;5062694;28;20036;-65
2021/04/26 01:38:31;;;;;;;6.88;3.30;;;6.00;66.50;;;;;;5060751;28;20484;-60
2021/04/26 01:40:57;;;;;;;11.40;3.90;;;6.00;66.60;;;;;;5058462;28;20029;-67
2021/04/26 01:43:26;;;;;;;8.32;3.72;;;6.00;67.00;;;;;;5062592;28;20032;-61
2021/04/26 01:45:56;;;;;;;12.20;4.10;;;6.00;66.90;;;;;;5058463;28;20108;-63
2021/04/26 01:48:22;;;;;;;8.20;3.60;;;6.00;66.90;;;;;;5059792;28;20060;-63
2021/04/26 01:50:49;;;;;;;7.90;3.53;;;5.90;67.10;;;;;;5057669;28;20086;-62
2021/04/26 01:53:16;;;;;;;7.78;3.90;;;5.90;67.70;;;;;;5061052;28;20100;-61
2021/04/26 01:55:44;;;;;;;10.38;3.83;;;5.90;67.40;;;;;;5056427;28;20032;-65
2021/04/26 01:58:10;;;;;;;8.57;4.53;;;5.80;67.70;;;;;;5057780;28;20448;-61
2021/04/26 02:00:36;;;;;;;9.27;4.40;;;5.80;67.80;;;;;;5063672;28;20463;-63
2021/04/26 02:03:03;;;;;;;7.03;3.60;;;5.80;67.90;;;;;;5062755;28;20021;-64
2021/04/26 02:05:31;;;;;;;6.50;4.03;;;5.70;67.90;;;;;;5062808;28;20035;-63
2021/04/26 02:07:57;;;;;;;7.38;3.38;;;5.70;68.20;;;;;;5061804;28;20055;-66
2021/04/26 02:10:28;;;;;;;14.00;4.57;;;5.60;68.30;;;;;;5066071;28;20060;-64
2021/04/26 02:12:54;;;;;;;8.38;4.18;;;5.50;69.30;;;;;;5065398;28;20049;-67
2021/04/26 02:15:21;;;;;;;7.78;4.10;;;5.40;69.50;;;;;;5062824;28;20039;-59
2021/04/26 02:17:47;;;;;;;6.88;4.00;;;5.40;69.70;;;;;;5060444;28;20474;-66
2021/04/26 02:20:15;;;;;;;7.25;4.57;;;5.30;69.70;;;;;;5059346;28;20013;-62
2021/04/26 02:22:42;;;;;;;6.55;3.60;;;5.20;70.10;;;;;;5058937;28;20098;-63
2021/04/26 02:25:10;;;;;;;6.75;3.83;;;5.10;70.20;;;;;;5060345;28;20482;-65
2021/04/26 02:27:37;;;;;;;7.05;3.88;;;5.00;70.70;;;;;;5062900;28;20023;-62
2021/04/26 02:30:05;;;;;;;5.82;3.25;;;5.00;71.20;;;;;;5064046;28;20086;-60
2021/04/26 02:32:38;;;;;;;5.10;3.28;;;4.90;71.30;;;;;;5064263;28;20466;-63
2021/04/26 02:35:06;;;;;;;6.22;3.80;;;4.80;71.70;;;;;;5057894;28;20123;-64
2021/04/26 02:37:51;;;;;;;7.63;3.92;;;4.70;72.60;;;;;;5061269;28;20025;-66
2021/04/26 02:40:18;;;;;;;7.75;4.00;;;4.60;73.20;;;;;;5060524;28;20097;-62
2021/04/26 02:42:46;;;;;;;9.07;3.90;;;4.60;73.40;;;;;;5063729;28;20036;-62
2021/04/26 02:45:15;;;;;;;7.82;3.60;;;4.50;73.60;;;;;;5058047;28;20029;-63
2021/04/26 02:47:44;;;;;;;7.50;3.75;;;4.40;74.00;;;;;;5061936;28;20478;-63
2021/04/26 02:50:15;;;;;;;7.47;3.97;;;4.40;75.10;;;;;;5063000;28;20485;-60
2021/04/26 02:52:41;;;;;;;8.02;3.83;;;4.30;74.90;;;;;;5059876;28;20051;-61
2021/04/26 02:55:07;;;;;;;8.23;3.58;;;4.30;75.50;;;;;;5060675;28;20025;-63
2021/04/26 02:57:34;;;;;;;7.65;4.32;;;4.20;75.30;;;;;;5063075;28;20023;-62
2021/04/26 03:00:20;;;;;;;7.10;3.63;;;4.20;75.60;;;;;;5061374;28;20036;-63
2021/04/26 03:02:47;;;;;;;7.75;4.25;;;4.10;75.60;;;;;;5061741;28;20048;-63
2021/04/26 03:05:14;;;;;;;7.45;3.97;;;4.10;75.90;;;;;;5063261;28;20039;-60
2021/04/26 03:07:41;;;;;;;10.40;4.75;;;4.00;76.50;;;;;;5064485;28;20469;-63
2021/04/26 03:10:13;;;;;;;8.23;4.28;;;4.00;76.80;;;;;;5057811;28;20041;-65
2021/04/26 03:12:42;;;;;;;10.68;5.03;;;3.90;77.00;;;;;;5056964;28;20064;-64
2021/04/26 03:15:11;;;;;;;12.25;5.03;;;3.90;77.70;;;;;;5056241;28;20459;-62
2021/04/26 03:17:38;;;;;;;8.05;4.53;;;3.80;78.30;;;;;;5059879;28;20032;-63
2021/04/26 03:20:06;;;;;;;11.18;4.95;;;3.80;78.40;;;;;;5062491;28;20020;-62
2021/04/26 03:22:32;;;;;;;9.77;4.75;;;3.80;78.90;;;;;;5063429;28;20029;-60
2021/04/26 03:24:58;;;;;;;8.88;4.63;;;3.80;78.70;;;;;;5062348;28;20097;-64
2021/04/26 03:27:25;;;;;;;10.73;5.07;;;3.80;78.40;;;;;;5061188;28;20040;-62
2021/04/26 03:29:52;;;;;;;9.45;4.78;;;3.80;78.40;;;;;;5062243;28;20032;-61
2021/04/26 03:32:18;;;;;;;10.68;4.60;;;3.70;78.70;;;;;;5057121;28;20389;-63
2021/04/26 03:34:45;;;;;;;12.52;5.70;;;3.70;78.70;;;;;;5053769;28;20538;-61
2021/04/26 03:37:17;;;;;;;12.35;5.07;;;3.70;78.10;;;;;;5052396;28;20029;-59
2021/04/26 03:39:45;;;;;;;13.32;4.65;;;3.80;76.70;;;;;;5053378;28;20041;-62
2021/04/26 03:42:14;;;;;;;12.85;5.25;;;3.80;76.50;;;;;;5053963;28;20031;-60
2021/04/26 03:44:43;;;;;;;10.70;4.63;;;3.90;76.20;;;;;;5073181;28;20033;-62
2021/04/26 03:47:09;;;;;;;16.40;5.78;;;4.00;75.40;;;;;;5064056;28;20025;-59
2021/04/26 03:49:34;;;;;;;10.27;5.05;;;4.00;74.60;;;;;;5067528;28;20090;-58
2021/04/26 03:52:00;;;;;;;12.05;5.13;;;4.00;74.30;;;;;;5070877;28;20103;-61
2021/04/26 03:54:26;;;;;;;10.52;4.72;;;4.00;74.10;;;;;;5072559;28;20029;-61
2021/04/26 03:56:52;;;;;;;11.25;4.82;;;4.10;73.80;;;;;;5072864;28;20024;-62
2021/04/26 03:59:18;;;;;;;9.73;4.53;;;4.00;73.90;;;;;;5072200;28;20057;-63
2021/04/26 04:01:45;;;;;;;9.00;4.47;;;4.00;73.80;;;;;;5072748;28;20033;-59
2021/04/26 04:04:11;;;;;;;10.13;4.65;;;4.10;73.30;;;;;;5071584;28;20036;-63
2021/04/26 04:06:36;;;;;;;11.50;4.25;;;4.10;73.20;;;;;;5069079;28;20013;-57
2021/04/26 04:09:05;;;;;;;6.18;4.45;;;4.00;73.00;;;;;;5069249;28;20037;-62
2021/04/26 04:11:31;;;;;;;8.20;4.53;;;4.00;73.30;;;;;;5071715;28;20497;-60
2021/04/26 04:13:57;;;;;;;8.18;4.65;;;3.90;73.40;;;;;;5071769;28;20470;-67
2021/04/26 04:16:23;;;;;;;9.25;4.70;;;3.90;73.20;;;;;;5072544;28;20028;-61
2021/04/26 04:18:50;;;;;;;12.70;4.50;;;3.90;73.50;;;;;;5072640;28;20029;-61
2021/04/26 04:21:16;;;;;;;13.98;5.63;;;3.90;73.40;;;;;;5070535;28;20500;-61
2021/04/26 04:23:42;;;;;;;9.40;4.70;;;3.90;73.90;;;;;;5072021;28;20021;-61
2021/04/26 04:26:08;;;;;;;13.45;4.60;;;3.90;72.70;;;;;;5071415;28;20428;-61
2021/04/26 04:28:35;;;;;;;8.32;4.70;;;3.90;72.70;;;;;;5071885;28;20134;-61
2021/04/26 04:31:01;;;;;;;8.05;4.20;;;3.90;72.90;;;;;;5071198;28;20024;-62
2021/04/26 04:33:27;;;;;;;9.18;4.57;;;3.90;72.40;;;;;;5071818;28;20031;-61
2021/04/26 04:35:53;;;;;;;8.20;3.53;;;4.00;72.40;;;;;;5072015;28;20100;-57
2021/04/26 04:38:18;;;;;;;10.40;4.53;;;4.00;72.00;;;;;;5071265;28;20032;-62
2021/04/26 04:40:44;;;;;;;7.85;4.30;;;4.00;71.60;;;;;;5054335;28;20062;-61
2021/04/26 04:43:10;;;;;;;8.07;4.32;;;4.00;71.10;;;;;;5071328;28;20063;-62
2021/04/26 04:45:36;;;;;;;11.13;4.75;;;4.10;71.00;;;;;;5071928;28;20034;-64
2021/04/26 04:48:03;;;;;;;8.23;4.30;;;4.00;71.00;;;;;;5055746;28;20527;-62
2021/04/26 04:50:29;;;;;;;9.10;4.45;;;4.00;71.20;;;;;;5056810;28;20378;-60
2021/04/26 04:52:54;;;;;;;9.25;4.07;;;4.10;71.50;;;;;;5071570;28;20039;-64
2021/04/26 04:55:20;;;;;;;12.63;4.68;;;4.10;70.80;;;;;;5070952;28;20158;-63
2021/04/26 04:57:46;;;;;;;5.72;4.10;;;4.20;70.60;;;;;;5071869;28;20075;-64
2021/04/26 05:00:12;;;;;;;11.77;4.57;;;4.20;70.50;;;;;;5071102;28;20074;-61
2021/04/26 05:02:38;;;;;;;8.57;4.05;;;4.30;69.30;;;;;;5066876;28;20036;-60
2021/04/26 05:05:04;;;;;;;9.85;4.13;;;4.40;69.10;;;;;;5070016;28;20378;-63
2021/04/26 05:07:30;;;;;;;11.00;4.30;;;4.40;69.10;;;;;;5071789;28;20032;-62
2021/04/26 05:09:56;;;;;;;8.15;4.22;;;4.40;69.30;;;;;;5071510;28;20040;-65
2021/04/26 05:12:21;;;;;;;9.43;4.22;;;4.50;69.50;;;;;;5071616;28;20021;-64
2021/04/26 05:14:48;;;;;;;7.85;4.30;;;4.50;69.50;;;;;;5071620;28;20100;-63
2021/04/26 05:17:14;;;;;;;6.68;3.70;;;4.50;69.60;;;;;;5070991;28;20028;-64
2021/04/26 05:19:40;;;;;;;13.23;4.97;;;4.60;69.70;;;;;;5072280;28;20115;-62
2021/04/26 05:22:06;;;;;;;14.35;5.30;;;4.70;71.20;;;;;;5070227;28;20112;-62
2021/04/26 05:24:32;;;;;;;9.52;4.82;;;4.80;71.10;;;;;;5071367;28;20469;-61
2021/04/26 05:26:58;;;;;;;11.60;4.40;;;4.90;71.40;;;;;;5071269;28;20465;-65
2021/04/26 05:29:24;;;;;;;8.15;4.10;;;5.00;69.40;;;;;;5066202;28;20037;-62
2021/04/26 05:31:49;;;;;;;11.82;4.45;;;5.00;68.60;;;;;;5071673;28;20112;-61
2021/04/26 05:34:15;;;;;;;8.80;4.00;;;5.10;67.80;;;;;;5073767;28;20027;-64
2021/04/26 05:36:41;;;;;;;9.05;4.25;;;5.10;67.70;;;;;;5075133;28;20071;-59
2021/04/26 05:39:06;;;;;;;11.68;4.28;;;5.10;66.70;;;;;;5074758;28;20090;-61
2021/04/26 05:41:32;;;;;;;9.30;4.47;;;5.30;66.20;;;;;;5075476;28;20033;-61
2021/04/26 05:43:58;;;;;;;10.50;4.97;;;5.30;66.30;;;;;;5075170;28;20500;-65
2021/04/26 05:46:24;;;;;;;10.27;3.83;;;5.30;66.10;;;;;;5074782;28;20024;-64
2021/04/26 05:48:50;;;;;;;7.65;3.85;;;5.30;65.90;;;;;;5075129;28;20044;-62
2021/04/26 05:51:16;;;;;;;7.38;3.60;;;5.40;66.00;;;;;;5073609;28;20811;-63
2021/04/26 05:53:42;;;;;;;5.80;3.50;;;5.50;65.20;;;;;;5075198;28;20033;-63
2021/04/26 05:56:08;;;;;;;7.07;3.92;;;5.60;64.30;;;;;;5061964;28;20036;-63
2021/04/26 05:58:34;;;;;;;11.43;3.97;;;5.70;64.00;;;;;;5061001;28;20044;-61
2021/04/26 06:01:00;;;;;;;13.02;4.57;;;5.70;63.50;;;;;;5074096;28;20104;-66
2021/04/26 06:03:26;;;;;;;9.98;4.18;;;5.90;63.00;;;;;;5074655;28;20024;-64
2021/04/26 06:05:52;;;;;;;8.02;4.22;;;5.80;63.50;;;;;;5074583;28;20024;-68
2021/04/26 06:08:18;;;;;;;8.90;3.92;;;6.00;62.90;;;;;;5073719;28;20351;-67
2021/04/26 06:10:44;;;;;;;9.00;4.07;;;6.10;62.40;;;;;;5074413;28;20082;-65
2021/04/26 06:13:09;;;;;;;12.10;4.50;;;6.10;62.80;;;;;;5074120;28;20028;-66
2021/04/26 06:15:35;;;;;;;7.97;4.20;;;6.20;63.30;;;;;;5074745;28;20031;-66
2021/04/26 06:18:15;;;;;;;9.98;4.50;;;6.30;62.20;;;;;;5074325;28;20033;-66
2021/04/26 06:20:42;;;;;;;13.05;4.57;;;6.30;62.20;;;;;;5073219;28;20074;-64
2021/04/26 06:23:08;;;;;;;12.93;4.47;;;6.40;62.10;;;;;;5073528;28;20035;-55
2021/04/26 06:25:36;;;;;;;9.43;4.65;;;6.40;61.70;;;;;;5051838;28;20474;-62
2021/04/26 06:28:03;;;;;;;8.13;4.22;;;6.40;61.40;;;;;;5073086;28;20462;-65
2021/04/26 06:30:29;;;;;;;8.10;4.65;;;6.40;62.50;;;;;;5074498;28;20024;-64
2021/04/26 06:32:55;;;;;;;7.10;4.35;;;6.50;61.40;;;;;;5074363;28;20051;-57
2021/04/26 06:35:20;;;;;;;9.50;4.57;;;6.50;61.60;;;;;;5073394;28;20016;-62
2021/04/26 06:37:46;;;;;;;7.28;4.22;;;6.50;61.90;;;;;;5074610;28;20436;-64
2021/04/26 06:40:12;;;;;;;15.60;5.38;;;6.50;61.80;;;;;;5072902;28;20073;-62
2021/04/26 06:42:38;;;;;;;10.10;4.32;;;6.60;61.90;;;;;;5073962;28;20066;-64
2021/04/26 06:45:05;;;;;;;15.57;4.72;;;6.70;61.40;;;;;;5072205;28;20025;-66
2021/04/26 06:47:30;;;;;;;8.70;5.20;;;6.80;61.60;;;;;;5062870;28;20125;-64
2021/04/26 06:49:57;;;;;;;10.20;4.40;;;6.90;61.50;;;;;;5055490;28;20115;-63
2021/04/26 06:52:22;;;;;;;11.98;4.68;;;6.90;62.10;;;;;;5072717;28;20035;-61
2021/04/26 06:54:48;;;;;;;8.23;5.10;;;7.00;61.50;;;;;;5073108;28;20025;-60
2021/04/26 06:57:14;;;;;;;10.40;6.25;;;7.10;61.60;;;;;;5072745;28;20462;-65
2021/04/26 06:59:40;;;;;;;8.52;4.40;;;7.30;60.30;;;;;;5072896;28;20063;-63
2021/04/26 07:02:07;;;;;;;12.18;4.47;;;7.40;59.40;;;;;;5073125;28;20029;-60
2021/04/26 07:04:32;;;;;;;10.57;5.15;;;7.50;58.80;;;;;;5073067;28;20104;-64
2021/04/26 07:06:58;;;;;;;7.95;4.05;;;7.60;58.90;;;;;;5072110;28;20029;-59
2021/04/26 07:09:24;;;;;;;8.27;3.92;;;7.70;57.70;;;;;;5071666;28;20115;-63
2021/04/26 07:11:50;;;;;;;10.88;3.85;;;7.70;57.80;;;;;;5073376;28;20035;-61
2021/04/26 07:14:16;;;;;;;11.77;4.32;;;7.70;58.00;;;;;;5070742;28;20063;-61
2021/04/26 07:16:42;;;;;;;10.18;4.22;;;7.80;57.10;;;;;;5072976;28;20025;-62
2021/04/26 07:19:08;;;;;;;10.35;4.50;;;7.90;57.50;;;;;;5071587;28;20028;-60
2021/04/26 07:21:34;;;;;;;6.93;3.90;;;8.00;57.30;;;;;;5062310;28;20028;-64
2021/04/26 07:24:00;;;;;;;9.38;4.40;;;8.00;57.20;;;;;;5068409;28;20044;-64
2021/04/26 07:26:26;;;;;;;11.20;4.30;;;8.10;57.40;;;;;;5052639;28;20136;-60
2021/04/26 07:28:52;;;;;;;7.93;3.70;;;8.30;57.80;;;;;;5052352;28;20147;-62
2021/04/26 07:31:18;;;;;;;8.35;4.18;;;8.30;57.00;;;;;;5052297;28;20029;-65
2021/04/26 07:33:43;;;;;;;9.38;4.68;;;8.50;55.90;;;;;;5052970;28;20111;-58
2021/04/26 07:36:09;;;;;;;8.70;4.45;;;8.50;56.30;;;;;;5052373;28;20539;-64
2021/04/26 07:38:35;;;;;;;11.95;4.03;;;8.60;55.80;;;;;;5052698;28;20037;-61
2021/04/26 07:41:01;;;;;;;7.72;4.05;;;8.70;56.00;;;;;;5053001;28;20091;-60
2021/04/26 07:43:27;;;;;;;8.10;4.50;;;8.80;55.40;;;;;;5063816;28;20093;-63
2021/04/26 07:45:53;;;;;;;11.15;4.75;;;8.80;55.70;;;;;;5070535;28;20450;-54
2021/04/26 07:48:18;;;;;;;12.65;4.45;;;8.80;55.40;;;;;;5053575;28;20044;-64
2021/04/26 07:50:44;;;;;;;10.20;4.57;;;8.80;55.60;;;;;;5052859;28;20390;-64
2021/04/26 07:53:11;;;;;;;10.75;4.80;;;9.00;55.10;;;;;;5051902;28;20025;-62
2021/04/26 07:55:38;;;;;;;9.00;4.97;;;9.10;54.70;;;;;;5051926;28;20029;-66
2021/04/26 07:58:03;;;;;;;8.88;5.05;;;9.20;54.80;;;;;;5055739;28;20048;-65
2021/04/26 08:00:30;;;;;;;10.32;4.45;;;9.30;55.40;;;;;;5057069;28;20025;-62
2021/04/26 08:02:56;;;;;;;7.63;4.32;;;9.50;55.50;;;;;;5073007;28;20028;-62
2021/04/26 08:05:22;;;;;;;10.82;4.53;;;9.50;54.10;;;;;;5070771;28;20127;-63
2021/04/26 08:07:48;;;;;;;11.20;4.80;;;9.50;54.40;;;;;;5072150;28;20393;-63
2021/04/26 08:10:14;;;;;;;11.23;4.60;;;9.70;54.20;;;;;;5071688;28;20033;-63
2021/04/26 08:12:40;;;;;;;9.95;4.82;;;9.80;54.20;;;;;;5072103;28;20033;-63
2021/04/26 08:15:08;;;;;;;9.80;4.57;;;9.90;53.30;;;;;;5071750;28;20030;-66
2021/04/26 08:17:34;;;;;;;10.90;4.65;;;10.00;52.80;;;;;;5072189;28;20098;-63
2021/04/26 08:20:00;;;;;;;7.07;3.88;;;10.20;52.00;;;;;;5072134;28;20039;-63
2021/04/26 08:22:26;;;;;;;8.13;4.45;;;10.30;52.00;;;;;;5070954;28;20032;-62
2021/04/26 08:24:52;;;;;;;7.97;3.95;;;10.30;51.50;;;;;;5072196;28;20100;-62
2021/04/26 08:27:18;;;;;;;7.28;3.95;;;10.30;51.40;;;;;;5070895;28;20119;-63
2021/04/26 08:29:44;;;;;;;12.18;4.90;;;10.30;52.00;;;;;;5071506;28;20047;-62
2021/04/26 08:32:09;;;;;;;9.63;4.63;;;10.30;51.50;;;;;;5071131;28;20040;-63
2021/04/26 08:34:35;;;;;;;11.63;4.82;;;10.30;51.60;;;;;;5072152;28;20028;-62
2021/04/26 08:37:00;;;;;;;10.25;4.95;;;10.30;51.70;;;;;;5070389;28;20055;-65
2021/04/26 08:39:26;;;;;;;10.10;4.65;;;10.30;51.60;;;;;;5062749;28;20041;-63
2021/04/26 08:41:52;;;;;;;6.88;4.10;;;10.30;51.70;;;;;;5071187;28;20020;-63
2021/04/26 08:44:18;;;;;;;8.90;4.55;;;10.50;52.30;;;;;;5071064;28;20058;-63
2021/04/26 08:46:45;;;;;;;11.98;4.78;;;10.70;51.10;;;;;;5067114;28;20028;-63
2021/04/26 08:49:14;;;;;;;11.27;4.15;;;10.70;51.50;;;;;;5050818;28;20033;-63
2021/04/26 08:51:40;;;;;;;11.30;4.80;;;10.90;51.20;;;;;;5052077;28;20028;-62
2021/04/26 08:54:07;;;;;;;6.85;4.13;;;11.00;50.40;;;;;;5048163;28;20025;-66
2021/04/26 08:56:34;;;;;;;9.65;4.90;;;11.10;50.40;;;;;;5071218;28;20059;-65
2021/04/26 08:59:00;;;;;;;9.93;4.63;;;11.20;50.40;;;;;;5071420;28;20517;-62
2021/04/26 09:01:25;;;;;;;11.13;4.35;;;11.20;50.00;;;;;;5069700;28;20028;-64
2021/04/26 09:03:51;;;;;;;7.53;4.63;;;11.20;50.70;;;;;;5071504;28;20404;-63
2021/04/26 09:06:17;;;;;;;12.63;5.22;;;11.40;50.10;;;;;;5069507;28;20028;-63
2021/04/26 09:08:49;;;;;;;10.45;5.32;;;11.60;48.80;;;;;;5070655;28;20085;-63
2021/04/26 09:11:16;;;;;;;16.38;5.47;;;11.80;49.80;;;;;;5070898;28;20024;-63
2021/04/26 09:13:47;;;;;;;7.30;3.92;;;11.80;48.70;;;;;;5071177;28;20033;-64
2021/04/26 09:16:26;;;;;;;12.93;4.63;;;11.80;48.90;;;;;;5070499;28;20029;-61
2021/04/26 09:18:58;;;;;;;7.67;4.93;;;11.90;48.10;;;;;;5071324;28;20020;-62
2021/04/26 09:21:26;;;;;;;11.95;4.72;;;12.10;48.80;;;;;;5070483;28;20032;-62
2021/04/26 09:24:22;;;;;;;6.10;3.97;;;12.20;48.60;;;;;;5070814;28;20382;-63
2021/04/26 09:26:50;;;;;;;7.82;4.03;;;12.30;47.70;;;;;;5071554;28;20117;-63
2021/04/26 09:29:24;;;;;;;13.25;5.05;;;12.40;46.90;;;;;;5069428;28;20033;-63
2021/04/26 09:32:05;;;;;;;10.20;4.95;;;12.60;47.40;;;;;;5067591;28;20502;-62
2021/04/26 09:34:35;;;;;;;10.55;4.90;;;12.70;47.10;;;;;;5049930;28;20060;-63
2021/04/26 09:37:13;;;;;;;7.15;4.25;;;12.90;47.10;;;;;;5049745;28;20041;-64
2021/04/26 09:39:58;;;;;;;12.23;4.80;;;12.90;46.80;;;;;;5071256;28;20398;-63
2021/04/26 09:42:50;;;;;;;9.93;4.15;;;13.00;46.20;;;;;;5070399;28;20555;-63
2021/04/26 09:45:27;;;;;;;8.40;4.70;;;13.10;46.50;;;;;;5070107;28;20035;-63
2021/04/26 09:48:13;;;;;;;10.57;5.15;;;13.30;45.90;;;;;;5070921;28;20030;-62
2021/04/26 09:51:04;;;;;;;10.88;4.82;;;13.40;46.40;;;;;;5070553;28;20055;-61
2021/04/26 09:53:29;;;;;;;;;;;13.40;45.00;;;;;;5063488;28;20047;-63
2021/04/26 09:55:57;;;;;;;10.20;4.90;;;13.50;47.50;;;;;;5071070;28;19904;-63
2021/04/26 09:58:24;;;;;;;7.97;4.22;;;13.70;45.80;;;;;;5069736;28;20052;-63
2021/04/26 10:00:50;;;;;;;7.70;4.05;;;13.80;45.10;;;;;;5070912;28;20112;-63
2021/04/26 10:03:17;;;;;;;10.35;4.57;;;13.80;45.20;;;;;;5070034;28;20024;-64
2021/04/26 10:05:44;;;;;;;9.38;4.78;;;14.00;45.20;;;;;;5071335;28;20021;-64
2021/04/26 10:08:16;;;;;;;6.25;4.45;;;14.20;45.40;;;;;;5068467;28;20040;-64
2021/04/26 10:10:45;;;;;;;7.63;4.35;;;14.40;44.10;;;;;;5071284;28;20032;-63
2021/04/26 10:13:11;;;;;;;9.27;4.93;;;14.50;43.40;;;;;;5070773;28;20028;-63
2021/04/26 10:15:38;;;;;;;9.93;4.40;;;14.60;44.50;;;;;;5070691;28;20029;-64
2021/04/26 10:18:07;;;;;;;9.13;4.32;;;14.70;43.40;;;;;;5069612;28;20543;-64
2021/04/26 10:20:38;;;;;;;12.95;4.35;;;14.80;42.60;;;;;;5071888;28;20154;-63
2021/04/26 10:23:23;;;;;;;8.77;4.63;;;15.10;42.10;;;;;;5074248;28;20033;-65
2021/04/26 10:25:48;;;;;;;8.00;4.88;;;15.20;42.70;;;;;;5068694;28;20048;-64
2021/04/26 10:28:34;;;;;;;8.20;4.88;;;15.30;40.70;;;;;;5059609;28;20028;-64
2021/04/26 10:31:13;;;;;;;9.40;4.65;;;15.40;41.30;;;;;;5073686;28;20021;-62
2021/04/26 10:33:59;;;;;;;6.22;4.07;;;15.30;41.40;;;;;;5074425;28;20024;-60
2021/04/26 10:36:56;;;;;;;7.72;4.57;;;15.40;41.90;;;;;;5073383;28;20245;-62
2021/04/26 10:39:24;;;;;;;11.57;4.60;;;15.60;41.20;;;;;;5072711;28;20082;-65
2021/04/26 10:41:59;;;;;;;9.32;4.20;;;15.70;41.00;;;;;;5074094;28;20406;-63
2021/04/26 10:44:37;;;;;;;8.38;4.50;;;15.70;40.80;;;;;;5073453;28;20112;-63
2021/04/26 10:47:25;;;;;;;9.25;4.55;;;15.70;41.30;;;;;;5066651;28;20052;-64
2021/04/26 10:50:01;;;;;;;9.27;4.68;;;15.80;42.50;;;;;;5054121;28;20385;-62
2021/04/26 10:52:26;;;;;;;7.47;4.82;;;15.80;42.20;;;;;;5083063;28;20041;-63
2021/04/26 10:54:55;;;;;;;10.60;4.57;;;15.80;42.40;;;;;;5053531;28;20031;-63
2021/04/26 10:57:42;;;;;;;7.25;5.03;;;16.00;40.80;;;;;;5053090;28;20037;-62
2021/04/26 11:00:26;;;;;;;9.20;4.82;;;16.00;41.30;;;;;;5053575;28;20073;-66
2021/04/26 11:03:18;;;;;;;8.52;5.15;;;15.90;41.00;;;;;;5053486;28;20032;-64
2021/04/26 11:05:45;;;;;;;9.02;5.20;;;15.90;41.60;;;;;;5048419;28;20036;-61
2021/04/26 11:08:31;;;;;;;8.48;4.75;;;15.90;41.70;;;;;;5052647;28;20061;-63
2021/04/26 11:11:02;;;;;;;7.25;4.43;;;16.00;41.30;;;;;;5053725;28;20068;-63
2021/04/26 11:13:30;;;;;;;7.53;4.63;;;16.10;41.60;;;;;;5052847;28;20108;-61
2021/04/26 11:16:02;;;;;;;7.70;4.65;;;16.40;39.90;;;;;;5053508;28;20070;-63
2021/04/26 11:18:28;;;;;;;7.85;4.40;;;16.50;39.50;;;;;;5052521;28;20027;-63
2021/04/26 11:20:54;;;;;;;8.30;4.93;;;16.60;39.50;;;;;;5053204;28;20025;-62
2021/04/26 11:23:48;;;;;;;8.55;4.30;;;16.80;39.10;;;;;;5052004;28;20119;-63
2021/04/26 11:26:13;;;;;;;10.93;4.70;;;17.00;40.00;;;;;;5052483;28;20025;-63
2021/04/26 11:29:01;;;;;;;10.27;4.80;;;17.30;38.90;;;;;;5061907;28;20055;-63
2021/04/26 11:31:42;;;;;;;7.07;4.43;;;17.50;37.20;;;;;;5071788;28;20216;-66
2021/04/26 11:34:09;;;;;;;9.73;4.38;;;17.50;37.90;;;;;;5072898;28;20024;-65
2021/04/26 11:36:37;;;;;;;10.85;4.15;;;17.20;37.60;;;;;;5072485;28;20024;-63
2021/04/26 11:39:09;;;;;;;8.30;4.53;;;17.00;39.20;;;;;;5072670;28;20373;-63
2021/04/26 11:41:42;;;;;;;9.85;4.68;;;16.90;39.90;;;;;;5072579;28;20032;-63
2021/04/26 11:44:08;;;;;;;7.75;4.30;;;16.90;39.50;;;;;;5072434;28;20028;-65
2021/04/26 11:46:34;;;;;;;9.57;4.40;;;16.80;39.20;;;;;;5069051;28;20017;-63
2021/04/26 11:49:16;;;;;;;6.18;3.97;;;16.90;39.70;;;;;;5052583;28;20091;-63
2021/04/26 11:51:44;;;;;;;8.15;4.57;;;17.10;38.20;;;;;;5052868;28;20029;-63
2021/04/26 11:54:14;;;;;;;9.90;4.18;;;17.30;37.50;;;;;;5052293;28;20029;-66
2021/04/26 11:57:01;;;;;;;9.43;4.90;;;17.60;37.40;;;;;;5052639;28;20037;-61
2021/04/26 11:59:27;;;;;;;7.75;4.20;;;17.50;37.00;;;;;;5066839;28;20083;-63
2021/04/26 12:01:54;;;;;;;6.82;4.13;;;17.60;36.40;;;;;;5072567;28;20059;-63
2021/04/26 12:04:41;;;;;;;5.40;3.80;;;17.80;36.60;;;;;;5071663;28;20035;-63
2021/04/26 12:07:08;;;;;;;9.52;3.85;;;17.90;36.70;;;;;;5072336;28;20039;-63
2021/04/26 12:09:38;;;;;;;7.13;4.35;;;18.20;36.10;;;;;;5071701;28;20099;-64
2021/04/26 12:12:06;;;;;;;5.72;3.33;;;18.50;35.90;;;;;;5072214;28;20035;-63
2021/04/26 12:14:33;;;;;;;7.18;3.83;;;18.60;35.90;;;;;;5066830;28;20039;-64
2021/04/26 12:17:25;;;;;;;10.00;4.05;;;18.70;35.60;;;;;;5071032;28;20047;-63
2021/04/26 12:19:53;;;;;;;6.55;3.83;;;18.50;35.20;;;;;;5069304;28;20044;-63
2021/04/26 12:22:21;;;;;;;7.07;3.70;;;18.60;34.80;;;;;;5071385;28;20025;-63
2021/04/26 12:24:48;;;;;;;7.45;4.30;;;18.80;34.90;;;;;;5071870;28;20028;-63
2021/04/26 12:27:17;;;;;;;7.15;3.95;;;18.90;34.40;;;;;;5070685;28;20480;-63
2021/04/26 12:29:44;;;;;;;5.53;3.53;;;18.90;34.60;;;;;;5071747;28;20060;-63
2021/04/26 12:32:18;;;;;;;5.90;3.55;;;19.10;33.50;;;;;;5071676;28;20115;-66
2021/04/26 12:34:54;;;;;;;6.07;3.58;;;19.20;33.90;;;;;;5071171;28;20074;-63
2021/04/26 12:37:23;;;;;;;7.63;3.92;;;19.50;33.80;;;;;;5071153;28;20041;-63
2021/04/26 12:39:49;;;;;;;8.82;4.03;;;19.80;33.20;;;;;;5071825;28;20068;-63
2021/04/26 12:42:21;;;;;;;10.02;3.92;;;19.80;32.70;;;;;;5070452;28;20436;-63
2021/04/26 12:44:48;;;;;;;5.65;3.30;;;19.90;31.90;;;;;;5071652;28;20108;-63
2021/04/26 12:47:25;;;;;;;9.93;3.13;;;20.00;32.20;;;;;;5062478;28;20040;-63
2021/04/26 12:50:14;;;;;;;3.60;2.97;;;20.20;31.10;;;;;;5051561;28;20036;-63
2021/04/26 12:52:41;;;;;;;6.95;3.65;;;20.30;30.00;;;;;;5051671;28;20033;-64
2021/04/26 12:55:11;;;;;;;6.45;3.60;;;20.60;30.20;;;;;;5049238;28;20048;-63
2021/04/26 12:57:38;;;;;;;5.13;2.95;;;20.60;30.80;;;;;;5071890;28;20491;-64
2021/04/26 13:00:08;;;;;;;5.30;2.72;;;20.60;30.40;;;;;;5072205;28;20067;-64